Rio Blanco — D5BO9 — position and weather

sailwx.info

Track history (hours):
 
Tides and Currents Weather Stations Pressure Air Temp Water Temp Dewpoint Dewpoint Depression Visibility Wind Speed Wind Dir Waves Ship Positions

Rio Blanco

Last reported at 2016-Aug-26 13:33 UTC. Time now 2016-Aug-26 13:46 UTC.
Position N 49°10' W 005°04'.

Length 286 m; draft 10 m.

Type: Ship (hazmat cat A). MMSI: 636092395.

Date/timePositionNaut miles runAvg speedWind from/ knotsBaromVisibWave heightAir tempDewpointWater temp
2016-Aug-26 13:33N 49°10' W 005°04'2311.4
2016-Aug-26 11:33N 49°22' W 004°34'1211.2
2016-Aug-26 10:27N 49°28' W 004°17'1011.5
2016-Aug-26 09:33N 49°33' W 004°04'1211.9
2016-Aug-26 08:33N 49°39' W 003°48'1312.6
2016-Aug-26 07:34N 49°46' W 003°31'1313.0
2016-Aug-26 06:33N 49°52' W 003°14'2512.6
2016-Aug-26 04:33N 50°02' W 002°38'1111.2
2016-Aug-26 03:33N 50°05' W 002°21'1110.1
2016-Aug-26 02:27N 50°08' W 002°04'8 9.1
2016-Aug-26 01:33N 50°10' W 001°52'9 9.2
2016-Aug-26 00:33N 50°12' W 001°38'10 9.7
2016-Aug-25 23:33N 50°15' W 001°23'1111.2
2016-Aug-25 22:33N 50°18' W 001°06'1312.9
2016-Aug-25 21:33N 50°22' W 000°47'1313.3
2016-Aug-25 20:33N 50°25' W 000°27'1313.3
2016-Aug-25 19:33N 50°28' W 000°07'1313.0
2016-Aug-25 18:33N 50°32' E 000°13'1212.4
2016-Aug-25 17:33N 50°35' E 000°32'1111.5
2016-Aug-25 16:33N 50°41' E 000°47'1111.2
2016-Aug-25 15:33N 50°48' E 001°02'1211.5
2016-Aug-25 14:30N 50°55' E 001°17'1313.4
2016-Aug-25 13:34N 51°04' E 001°31'1514.7
2016-Aug-25 12:34N 51°14' E 001°47'1414.0
2016-Aug-25 11:33N 51°27' E 001°58'1312.8
2016-Aug-25 10:33N 51°37' E 002°11'1211.8
2016-Aug-25 09:33N 51°46' E 002°23'1111.1
2016-Aug-25 08:33N 51°54' E 002°35'1110.5
2016-Aug-25 07:33N 52°02' E 002°47'1010.2
2016-Aug-25 06:33N 52°10' E 002°57'2210.9
2016-Aug-25 04:33N 52°27' E 003°18'1212.4
2016-Aug-25 03:33N 52°37' E 003°30'1312.8
2016-Aug-25 02:33N 52°47' E 003°43'1312.9
2016-Aug-25 01:33N 52°56' E 003°59'1212.5
2016-Aug-25 00:33N 53°05' E 004°14'3 4.9
2016-Aug-25 00:00N 53°06' E 004°18'920.4 140 / 121018.310.8 23.016.518.0
2016-Aug-24 23:33N 53°13' E 004°26'1110.7
2016-Aug-24 22:33N 53°23' E 004°34'10 9.9
2016-Aug-24 21:33N 53°30' E 004°45'1110.5
2016-Aug-24 20:33N 53°35' E 005°01'1211.5
2016-Aug-24 19:33N 53°39' E 005°19'1312.5
2016-Aug-24 18:33N 53°42' E 005°39'1312.7
2016-Aug-24 17:33N 53°46' E 005°60'1212.4
2016-Aug-24 16:33N 53°50' E 006°20'1212.1
2016-Aug-24 15:33N 53°53' E 006°40'1111.4
2016-Aug-24 14:34N 53°55' E 006°59'1110.7
2016-Aug-24 13:33N 53°57' E 007°17'9 9.2
2016-Aug-24 12:33N 53°59' E 007°32'8 8.4
2016-Aug-24 11:33N 54°01' E 007°46'9 9.2
2016-Aug-24 10:33N 54°01' E 008°01'1110.6
2016-Aug-24 09:33N 53°60' E 008°19'1616.4
2016-Aug-24 08:33N 53°52' E 008°44'1514.9
2016-Aug-24 07:33N 53°53' E 009°09'1312.6
2016-Aug-24 06:33N 53°45' E 009°25'19 9.7
2016-Aug-24 04:33N 53°33' E 009°51'3 2.5
2016-Aug-24 03:31N 53°32' E 009°55'0 0.0
2016-Aug-24 02:31N 53°32' E 009°55'0 0.0
2016-Aug-24 01:31N 53°32' E 009°55'0 0.0
2016-Aug-24 00:31N 53°32' E 009°55'0 0.0
2016-Aug-23 23:31N 53°32' E 009°55'0 0.0
2016-Aug-23 22:31N 53°32' E 009°55'0 0.0
2016-Aug-23 21:31N 53°32' E 009°55'0 0.0
2016-Aug-23 20:31N 53°32' E 009°55'0 0.0
2016-Aug-23 19:31N 53°32' E 009°55'0 0.0
2016-Aug-23 18:31N 53°32' E 009°55'0 0.0
2016-Aug-23 17:31N 53°32' E 009°55'0 0.0
2016-Aug-23 16:31N 53°32' E 009°55'0 0.0
2016-Aug-23 15:31N 53°32' E 009°55'0 0.0
2016-Aug-23 14:31N 53°32' E 009°55'0 0.0
2016-Aug-23 13:31N 53°32' E 009°55'0 0.0
2016-Aug-23 12:31N 53°32' E 009°55'0 0.0
2016-Aug-23 11:31N 53°32' E 009°55'0 0.0
2016-Aug-23 10:31N 53°32' E 009°55'0 0.0
2016-Aug-23 09:31N 53°32' E 009°55'0 0.0
2016-Aug-23 08:31N 53°32' E 009°55'0 0.0
2016-Aug-23 07:31N 53°32' E 009°55'0 0.0
2016-Aug-23 06:31N 53°32' E 009°55'0 0.0
2016-Aug-23 05:31N 53°32' E 009°55'0 0.0
2016-Aug-23 04:31N 53°32' E 009°55'0 0.0
2016-Aug-23 03:34N 53°32' E 009°55'5 5.0
2016-Aug-23 02:34N 53°33' E 009°47'1212.4
2016-Aug-23 01:33N 53°41' E 009°30'1515.0
2016-Aug-23 00:33N 53°53' E 009°15'1515.0
2016-Aug-22 23:34N 53°50' E 008°49'1514.6
2016-Aug-22 22:34N 53°58' E 008°29'1514.5
2016-Aug-22 21:33N 53°60' E 008°04'1111.1
2016-Aug-22 20:33N 53°57' E 007°46'1110.7
2016-Aug-22 19:33N 53°54' E 007°28'1010.2
2016-Aug-22 18:33N 53°52' E 007°11'1010.1
2016-Aug-22 17:33N 53°50' E 006°55'10 9.6
2016-Aug-22 16:33N 53°47' E 006°39'10 9.6
2016-Aug-22 15:33N 53°45' E 006°23'10 9.9
2016-Aug-22 14:33N 53°43' E 006°07'9 8.8
2016-Aug-22 13:33N 53°40' E 005°53'1312.6
2016-Aug-22 12:33N 53°36' E 005°33'1313.1
2016-Aug-22 11:33N 53°32' E 005°12'1413.3
2016-Aug-22 10:31N 53°27' E 004°51'1412.4
2016-Aug-22 09:24N 53°16' E 004°36'1113.1
2016-Aug-22 08:33N 53°06' E 004°27'1414.2
2016-Aug-22 07:33N 52°54' E 004°16'1514.9
2016-Aug-22 06:33N 52°41' E 004°02'1515.2
2016-Aug-22 05:33N 52°30' E 003°45'4515.0
2016-Aug-22 02:31N 51°48' E 003°17'1313.7
2016-Aug-22 01:33N 51°36' E 003°11'1212.1
2016-Aug-22 00:33N 51°24' E 003°05'1414.2
2016-Aug-21 23:34N 51°25' E 003°28'9 9.3
2016-Aug-21 22:33N 51°23' E 003°43'1211.8
2016-Aug-21 21:33N 51°26' E 004°01'1010.0
2016-Aug-21 20:33N 51°21' E 004°15'3 3.4
2016-Aug-21 19:33N 51°18' E 004°16'0 0.0
2016-Aug-21 18:33N 51°18' E 004°16'0 0.0
2016-Aug-21 17:30N 51°18' E 004°16'0 0.0
2016-Aug-21 16:33N 51°18' E 004°16'0 0.0
2016-Aug-21 15:33N 51°18' E 004°16'0 0.0
2016-Aug-21 14:33N 51°18' E 004°16'0 0.0
2016-Aug-21 13:30N 51°18' E 004°16'0 0.0
2016-Aug-21 12:33N 51°18' E 004°16'0 0.0
2016-Aug-21 11:33N 51°18' E 004°16'0 0.0
2016-Aug-21 10:33N 51°18' E 004°16'0 0.0
2016-Aug-21 09:33N 51°18' E 004°16'0 0.0
2016-Aug-21 08:33N 51°18' E 004°16'0 0.0
2016-Aug-21 07:33N 51°18' E 004°16'0 0.0
2016-Aug-21 06:30N 51°18' E 004°16'0 0.0
2016-Aug-21 05:33N 51°18' E 004°16'0 0.0
2016-Aug-21 04:33N 51°18' E 004°16'2 2.1
2016-Aug-21 03:33N 51°20' E 004°16'7 7.2
2016-Aug-21 02:33N 51°22' E 004°06'6 5.9
2016-Aug-21 01:34N 51°23' E 003°56'9 8.8
2016-Aug-21 00:33N 51°25' E 003°42'1010.5
2016-Aug-20 23:33N 51°25' E 003°26'1110.9
2016-Aug-20 22:33N 51°24' E 003°08'9 9.1
2016-Aug-20 21:33N 51°22' E 002°54'1111.1
2016-Aug-20 20:34N 51°23' E 002°36'2 1.8
2016-Aug-20 19:33N 51°25' E 002°36'0 0.0
2016-Aug-20 18:30N 51°25' E 002°36'0 0.1
2016-Aug-20 17:33N 51°25' E 002°36'0 0.0
2016-Aug-20 16:33N 51°25' E 002°36'0 0.0
2016-Aug-20 15:33N 51°25' E 002°36'0 0.1
2016-Aug-20 14:33N 51°25' E 002°36'0 0.0
2016-Aug-20 13:33N 51°25' E 002°36'0 0.1
2016-Aug-20 12:33N 51°25' E 002°36'0 0.0
2016-Aug-20 11:33N 51°25' E 002°36'0 0.3
2016-Aug-20 10:33N 51°25' E 002°36'1 1.0
2016-Aug-20 09:32N 51°24' E 002°35'0 0.1
2016-Aug-20 08:33N 51°24' E 002°35'4 4.4
2016-Aug-20 07:34N 51°22' E 002°29'8 7.8
2016-Aug-20 06:33N 51°19' E 002°17'1413.8
2016-Aug-20 05:33N 51°25' E 001°58'1414.5
2016-Aug-20 04:34N 51°38' E 001°47'1313.3
2016-Aug-20 03:33N 51°51' E 001°39'1111.5
2016-Aug-20 02:33N 51°56' E 001°23'3 3.4
2016-Aug-20 01:33N 51°58' E 001°18'0 0.0
2016-Aug-20 00:33N 51°58' E 001°18'0 0.0
2016-Aug-19 23:32N 51°58' E 001°18'0 0.0
2016-Aug-19 22:32N 51°58' E 001°18'0 0.0
2016-Aug-19 21:32N 51°58' E 001°18'0 0.0
2016-Aug-19 20:32N 51°58' E 001°18'0 0.0
2016-Aug-19 19:32N 51°58' E 001°18'0 0.0
2016-Aug-19 18:32N 51°58' E 001°18'0 0.0
2016-Aug-19 17:32N 51°58' E 001°18'0 0.0
2016-Aug-19 16:32N 51°58' E 001°18'0 0.0
2016-Aug-19 15:32N 51°58' E 001°18'0 0.0
2016-Aug-19 14:32N 51°58' E 001°18'0 0.0
2016-Aug-19 13:32N 51°58' E 001°18'0 0.0
2016-Aug-19 12:32N 51°58' E 001°18'0 0.0
2016-Aug-19 11:32N 51°58' E 001°18'0 0.0
2016-Aug-19 10:32N 51°58' E 001°18'0 0.0
2016-Aug-19 09:32N 51°58' E 001°18'0 0.0
2016-Aug-19 08:32N 51°58' E 001°18'0 0.0
2016-Aug-19 07:32N 51°58' E 001°18'0 0.0
2016-Aug-19 06:32N 51°58' E 001°18'0 0.0
2016-Aug-19 05:32N 51°58' E 001°18'3 2.9
2016-Aug-19 04:34N 51°56' E 001°21'1111.0
2016-Aug-19 03:33N 51°52' E 001°38'3 2.5
2016-Aug-19 02:32N 51°53' E 001°41'0 0.0
2016-Aug-19 01:32N 51°53' E 001°41'0 0.2
2016-Aug-19 00:32N 51°53' E 001°41'0 0.1
2016-Aug-18 23:32N 51°53' E 001°41'0 0.0
2016-Aug-18 22:32N 51°53' E 001°41'6 5.7
2016-Aug-18 21:33N 51°50' E 001°47'9 9.0
2016-Aug-18 20:34N 51°41' E 001°49'9 9.3
2016-Aug-18 19:34N 51°32' E 001°54'10 9.7
2016-Aug-18 18:33N 51°23' E 002°01'10 9.6
2016-Aug-18 17:33N 51°15' E 001°52'1010.2
2016-Aug-18 16:33N 51°07' E 001°42'1111.2
2016-Aug-18 15:34N 50°58' E 001°32'1312.9
2016-Aug-18 14:33N 50°46' E 001°23'1312.7
2016-Aug-18 13:33N 50°37' E 001°10'1512.6
2016-Aug-18 12:21N 50°28' E 000°50'1012.4
2016-Aug-18 11:33N 50°26' E 000°35'1212.4
2016-Aug-18 10:34N 50°22' E 000°17'1312.4
2016-Aug-18 09:33N 50°19' W 000°02'1313.0
2016-Aug-18 08:33N 50°16' W 000°22'1312.9
2016-Aug-18 07:34N 50°12' W 000°41'1312.8
2016-Aug-18 06:33N 50°09' W 001°00'1211.8
2016-Aug-18 05:33N 50°06' W 001°18'1010.3
2016-Aug-18 04:33N 50°03' W 001°34'9 8.7
2016-Aug-18 03:33N 50°01' W 001°47'7 7.0
2016-Aug-18 02:33N 49°59' W 001°57'15 6.7
2016-Aug-18 00:19N 49°55' W 002°20'15 8.4
2016-Aug-17 22:33N 49°51' W 002°42'10 9.9
2016-Aug-17 21:33N 49°48' W 002°57'1010.4
2016-Aug-17 20:33N 49°45' W 003°12'1110.8
2016-Aug-17 19:33N 49°40' W 003°27'1111.0
2016-Aug-17 18:33N 49°34' W 003°41'5111.6
2016-Aug-17 14:11N 49°07' W 004°47'913.8
2016-Aug-17 13:33N 49°03' W 004°58'1817.9
2016-Aug-17 12:33N 48°53' W 005°21'1717.3
2016-Aug-17 11:33N 48°42' W 005°41'14216.8
2016-Aug-17 03:08N 46°36' W 007°16'1117.4
2016-Aug-17 02:29N 46°26' W 007°23'  
Track history (hours):
 
Tides and Currents Weather Stations Pressure Air Temp Water Temp Dewpoint Dewpoint Depression Visibility Wind Speed Wind Dir Waves Ship Positions

Rio Blanco

Last reported at 2016-Aug-26 13:33 UTC. Time now 2016-Aug-26 13:46 UTC.
Position N 49°10' W 005°04'.

Length 286 m; draft 10 m.

Type: Ship (hazmat cat A). MMSI: 636092395.

Date/timePositionNaut miles runAvg speedWind from/ knotsBaromVisibWave heightAir tempDewpointWater temp
2016-Aug-26 13:33N 49°10' W 005°04'2311.4
2016-Aug-26 11:33N 49°22' W 004°34'1211.2
2016-Aug-26 10:27N 49°28' W 004°17'1011.5
2016-Aug-26 09:33N 49°33' W 004°04'1211.9
2016-Aug-26 08:33N 49°39' W 003°48'1312.6
2016-Aug-26 07:34N 49°46' W 003°31'1313.0
2016-Aug-26 06:33N 49°52' W 003°14'2512.6
2016-Aug-26 04:33N 50°02' W 002°38'1111.2
2016-Aug-26 03:33N 50°05' W 002°21'1110.1
2016-Aug-26 02:27N 50°08' W 002°04'8 9.1
2016-Aug-26 01:33N 50°10' W 001°52'9 9.2
2016-Aug-26 00:33N 50°12' W 001°38'10 9.7
2016-Aug-25 23:33N 50°15' W 001°23'1111.2
2016-Aug-25 22:33N 50°18' W 001°06'1312.9
2016-Aug-25 21:33N 50°22' W 000°47'1313.3
2016-Aug-25 20:33N 50°25' W 000°27'1313.3
2016-Aug-25 19:33N 50°28' W 000°07'1313.0
2016-Aug-25 18:33N 50°32' E 000°13'1212.4
2016-Aug-25 17:33N 50°35' E 000°32'1111.5
2016-Aug-25 16:33N 50°41' E 000°47'1111.2
2016-Aug-25 15:33N 50°48' E 001°02'1211.5
2016-Aug-25 14:30N 50°55' E 001°17'1313.4
2016-Aug-25 13:34N 51°04' E 001°31'1514.7
2016-Aug-25 12:34N 51°14' E 001°47'1414.0
2016-Aug-25 11:33N 51°27' E 001°58'1312.8
2016-Aug-25 10:33N 51°37' E 002°11'1211.8
2016-Aug-25 09:33N 51°46' E 002°23'1111.1
2016-Aug-25 08:33N 51°54' E 002°35'1110.5
2016-Aug-25 07:33N 52°02' E 002°47'1010.2
2016-Aug-25 06:33N 52°10' E 002°57'2210.9
2016-Aug-25 04:33N 52°27' E 003°18'1212.4
2016-Aug-25 03:33N 52°37' E 003°30'1312.8
2016-Aug-25 02:33N 52°47' E 003°43'1312.9
2016-Aug-25 01:33N 52°56' E 003°59'1212.5
2016-Aug-25 00:33N 53°05' E 004°14'3 4.9
2016-Aug-25 00:00N 53°06' E 004°18'920.4 140 / 121018.310.8 23.016.518.0
2016-Aug-24 23:33N 53°13' E 004°26'1110.7
2016-Aug-24 22:33N 53°23' E 004°34'10 9.9
2016-Aug-24 21:33N 53°30' E 004°45'1110.5
2016-Aug-24 20:33N 53°35' E 005°01'1211.5
2016-Aug-24 19:33N 53°39' E 005°19'1312.5
2016-Aug-24 18:33N 53°42' E 005°39'1312.7
2016-Aug-24 17:33N 53°46' E 005°60'1212.4
2016-Aug-24 16:33N 53°50' E 006°20'1212.1
2016-Aug-24 15:33N 53°53' E 006°40'1111.4
2016-Aug-24 14:34N 53°55' E 006°59'1110.7
2016-Aug-24 13:33N 53°57' E 007°17'9 9.2
2016-Aug-24 12:33N 53°59' E 007°32'8 8.4
2016-Aug-24 11:33N 54°01' E 007°46'9 9.2
2016-Aug-24 10:33N 54°01' E 008°01'1110.6
2016-Aug-24 09:33N 53°60' E 008°19'1616.4
2016-Aug-24 08:33N 53°52' E 008°44'1514.9
2016-Aug-24 07:33N 53°53' E 009°09'1312.6
2016-Aug-24 06:33N 53°45' E 009°25'19 9.7
2016-Aug-24 04:33N 53°33' E 009°51'3 2.5
2016-Aug-24 03:31N 53°32' E 009°55'0 0.0
2016-Aug-24 02:31N 53°32' E 009°55'0 0.0
2016-Aug-24 01:31N 53°32' E 009°55'0 0.0
2016-Aug-24 00:31N 53°32' E 009°55'0 0.0
2016-Aug-23 23:31N 53°32' E 009°55'0 0.0
2016-Aug-23 22:31N 53°32' E 009°55'0 0.0
2016-Aug-23 21:31N 53°32' E 009°55'0 0.0
2016-Aug-23 20:31N 53°32' E 009°55'0 0.0
2016-Aug-23 19:31N 53°32' E 009°55'0 0.0
2016-Aug-23 18:31N 53°32' E 009°55'0 0.0
2016-Aug-23 17:31N 53°32' E 009°55'0 0.0
2016-Aug-23 16:31N 53°32' E 009°55'0 0.0
2016-Aug-23 15:31N 53°32' E 009°55'0 0.0
2016-Aug-23 14:31N 53°32' E 009°55'0 0.0
2016-Aug-23 13:31N 53°32' E 009°55'0 0.0
2016-Aug-23 12:31N 53°32' E 009°55'0 0.0
2016-Aug-23 11:31N 53°32' E 009°55'0 0.0
2016-Aug-23 10:31N 53°32' E 009°55'0 0.0
2016-Aug-23 09:31N 53°32' E 009°55'0 0.0
2016-Aug-23 08:31N 53°32' E 009°55'0 0.0
2016-Aug-23 07:31N 53°32' E 009°55'0 0.0
2016-Aug-23 06:31N 53°32' E 009°55'0 0.0
2016-Aug-23 05:31N 53°32' E 009°55'0 0.0
2016-Aug-23 04:31N 53°32' E 009°55'0 0.0
2016-Aug-23 03:34N 53°32' E 009°55'5 5.0
2016-Aug-23 02:34N 53°33' E 009°47'1212.4
2016-Aug-23 01:33N 53°41' E 009°30'1515.0
2016-Aug-23 00:33N 53°53' E 009°15'1515.0
2016-Aug-22 23:34N 53°50' E 008°49'1514.6
2016-Aug-22 22:34N 53°58' E 008°29'1514.5
2016-Aug-22 21:33N 53°60' E 008°04'1111.1
2016-Aug-22 20:33N 53°57' E 007°46'1110.7
2016-Aug-22 19:33N 53°54' E 007°28'1010.2
2016-Aug-22 18:33N 53°52' E 007°11'1010.1
2016-Aug-22 17:33N 53°50' E 006°55'10 9.6
2016-Aug-22 16:33N 53°47' E 006°39'10 9.6
2016-Aug-22 15:33N 53°45' E 006°23'10 9.9
2016-Aug-22 14:33N 53°43' E 006°07'9 8.8
2016-Aug-22 13:33N 53°40' E 005°53'1312.6
2016-Aug-22 12:33N 53°36' E 005°33'1313.1
2016-Aug-22 11:33N 53°32' E 005°12'1413.3
2016-Aug-22 10:31N 53°27' E 004°51'1412.4
2016-Aug-22 09:24N 53°16' E 004°36'1113.1
2016-Aug-22 08:33N 53°06' E 004°27'1414.2
2016-Aug-22 07:33N 52°54' E 004°16'1514.9
2016-Aug-22 06:33N 52°41' E 004°02'1515.2
2016-Aug-22 05:33N 52°30' E 003°45'4515.0
2016-Aug-22 02:31N 51°48' E 003°17'1313.7
2016-Aug-22 01:33N 51°36' E 003°11'1212.1
2016-Aug-22 00:33N 51°24' E 003°05'1414.2
2016-Aug-21 23:34N 51°25' E 003°28'9 9.3
2016-Aug-21 22:33N 51°23' E 003°43'1211.8
2016-Aug-21 21:33N 51°26' E 004°01'1010.0
2016-Aug-21 20:33N 51°21' E 004°15'3 3.4
2016-Aug-21 19:33N 51°18' E 004°16'0 0.0
2016-Aug-21 18:33N 51°18' E 004°16'0 0.0
2016-Aug-21 17:30N 51°18' E 004°16'0 0.0
2016-Aug-21 16:33N 51°18' E 004°16'0 0.0
2016-Aug-21 15:33N 51°18' E 004°16'0 0.0
2016-Aug-21 14:33N 51°18' E 004°16'0 0.0
2016-Aug-21 13:30N 51°18' E 004°16'0 0.0
2016-Aug-21 12:33N 51°18' E 004°16'0 0.0
2016-Aug-21 11:33N 51°18' E 004°16'0 0.0
2016-Aug-21 10:33N 51°18' E 004°16'0 0.0
2016-Aug-21 09:33N 51°18' E 004°16'0 0.0
2016-Aug-21 08:33N 51°18' E 004°16'0 0.0
2016-Aug-21 07:33N 51°18' E 004°16'0 0.0
2016-Aug-21 06:30N 51°18' E 004°16'0 0.0
2016-Aug-21 05:33N 51°18' E 004°16'0 0.0
2016-Aug-21 04:33N 51°18' E 004°16'2 2.1
2016-Aug-21 03:33N 51°20' E 004°16'7 7.2
2016-Aug-21 02:33N 51°22' E 004°06'6 5.9
2016-Aug-21 01:34N 51°23' E 003°56'9 8.8
2016-Aug-21 00:33N 51°25' E 003°42'1010.5
2016-Aug-20 23:33N 51°25' E 003°26'1110.9
2016-Aug-20 22:33N 51°24' E 003°08'9 9.1
2016-Aug-20 21:33N 51°22' E 002°54'1111.1
2016-Aug-20 20:34N 51°23' E 002°36'2 1.8
2016-Aug-20 19:33N 51°25' E 002°36'0 0.0
2016-Aug-20 18:30N 51°25' E 002°36'0 0.1
2016-Aug-20 17:33N 51°25' E 002°36'0 0.0
2016-Aug-20 16:33N 51°25' E 002°36'0 0.0
2016-Aug-20 15:33N 51°25' E 002°36'0 0.1
2016-Aug-20 14:33N 51°25' E 002°36'0 0.0
2016-Aug-20 13:33N 51°25' E 002°36'0 0.1
2016-Aug-20 12:33N 51°25' E 002°36'0 0.0
2016-Aug-20 11:33N 51°25' E 002°36'0 0.3
2016-Aug-20 10:33N 51°25' E 002°36'1 1.0
2016-Aug-20 09:32N 51°24' E 002°35'0 0.1
2016-Aug-20 08:33N 51°24' E 002°35'4 4.4
2016-Aug-20 07:34N 51°22' E 002°29'8 7.8
2016-Aug-20 06:33N 51°19' E 002°17'1413.8
2016-Aug-20 05:33N 51°25' E 001°58'1414.5
2016-Aug-20 04:34N 51°38' E 001°47'1313.3
2016-Aug-20 03:33N 51°51' E 001°39'1111.5
2016-Aug-20 02:33N 51°56' E 001°23'3 3.4
2016-Aug-20 01:33N 51°58' E 001°18'0 0.0
2016-Aug-20 00:33N 51°58' E 001°18'0 0.0
2016-Aug-19 23:32N 51°58' E 001°18'0 0.0
2016-Aug-19 22:32N 51°58' E 001°18'0 0.0
2016-Aug-19 21:32N 51°58' E 001°18'0 0.0
2016-Aug-19 20:32N 51°58' E 001°18'0 0.0
2016-Aug-19 19:32N 51°58' E 001°18'0 0.0
2016-Aug-19 18:32N 51°58' E 001°18'0 0.0
2016-Aug-19 17:32N 51°58' E 001°18'0 0.0
2016-Aug-19 16:32N 51°58' E 001°18'0 0.0
2016-Aug-19 15:32N 51°58' E 001°18'0 0.0
2016-Aug-19 14:32N 51°58' E 001°18'0 0.0
2016-Aug-19 13:32N 51°58' E 001°18'0 0.0
2016-Aug-19 12:32N 51°58' E 001°18'0 0.0
2016-Aug-19 11:32N 51°58' E 001°18'0 0.0
2016-Aug-19 10:32N 51°58' E 001°18'0 0.0
2016-Aug-19 09:32N 51°58' E 001°18'0 0.0
2016-Aug-19 08:32N 51°58' E 001°18'0 0.0
2016-Aug-19 07:32N 51°58' E 001°18'0 0.0
2016-Aug-19 06:32N 51°58' E 001°18'0 0.0
2016-Aug-19 05:32N 51°58' E 001°18'3 2.9
2016-Aug-19 04:34N 51°56' E 001°21'1111.0
2016-Aug-19 03:33N 51°52' E 001°38'3 2.5
2016-Aug-19 02:32N 51°53' E 001°41'0 0.0
2016-Aug-19 01:32N 51°53' E 001°41'0 0.2
2016-Aug-19 00:32N 51°53' E 001°41'0 0.1
2016-Aug-18 23:32N 51°53' E 001°41'0 0.0
2016-Aug-18 22:32N 51°53' E 001°41'6 5.7
2016-Aug-18 21:33N 51°50' E 001°47'9 9.0
2016-Aug-18 20:34N 51°41' E 001°49'9 9.3
2016-Aug-18 19:34N 51°32' E 001°54'10 9.7
2016-Aug-18 18:33N 51°23' E 002°01'10 9.6
2016-Aug-18 17:33N 51°15' E 001°52'1010.2
2016-Aug-18 16:33N 51°07' E 001°42'1111.2
2016-Aug-18 15:34N 50°58' E 001°32'1312.9
2016-Aug-18 14:33N 50°46' E 001°23'1312.7
2016-Aug-18 13:33N 50°37' E 001°10'1512.6
2016-Aug-18 12:21N 50°28' E 000°50'1012.4
2016-Aug-18 11:33N 50°26' E 000°35'1212.4
2016-Aug-18 10:34N 50°22' E 000°17'1312.4
2016-Aug-18 09:33N 50°19' W 000°02'1313.0
2016-Aug-18 08:33N 50°16' W 000°22'1312.9
2016-Aug-18 07:34N 50°12' W 000°41'1312.8
2016-Aug-18 06:33N 50°09' W 001°00'1211.8
2016-Aug-18 05:33N 50°06' W 001°18'1010.3
2016-Aug-18 04:33N 50°03' W 001°34'9 8.7
2016-Aug-18 03:33N 50°01' W 001°47'7 7.0
2016-Aug-18 02:33N 49°59' W 001°57'15 6.7
2016-Aug-18 00:19N 49°55' W 002°20'15 8.4
2016-Aug-17 22:33N 49°51' W 002°42'10 9.9
2016-Aug-17 21:33N 49°48' W 002°57'1010.4
2016-Aug-17 20:33N 49°45' W 003°12'1110.8
2016-Aug-17 19:33N 49°40' W 003°27'1111.0
2016-Aug-17 18:33N 49°34' W 003°41'5111.6
2016-Aug-17 14:11N 49°07' W 004°47'913.8
2016-Aug-17 13:33N 49°03' W 004°58'1817.9
2016-Aug-17 12:33N 48°53' W 005°21'1717.3
2016-Aug-17 11:33N 48°42' W 005°41'14216.8
2016-Aug-17 03:08N 46°36' W 007°16'1117.4
2016-Aug-17 02:29N 46°26' W 007°23'  

Dump ship's entire track history